createdAt,value
2023-02-18T00:01:35.149Z,89.66
2023-02-18T00:04:02.900Z,89.46
2023-02-18T00:06:33.724Z,89.46
2023-02-18T00:09:02.685Z,89.21
2023-02-18T00:11:32.934Z,89.49
2023-02-18T00:14:02.625Z,89.27
2023-02-18T00:16:31.831Z,89.32
2023-02-18T00:19:01.609Z,89.30
2023-02-18T00:21:30.530Z,89.28
2023-02-18T00:23:59.721Z,88.99
2023-02-18T00:26:28.110Z,89.16
2023-02-18T00:28:56.023Z,89.15
2023-02-18T00:31:25.766Z,89.29
2023-02-18T00:33:54.146Z,89.21
2023-02-18T00:36:23.500Z,89.37
2023-02-18T00:38:54.640Z,89.29
2023-02-18T00:41:26.221Z,89.15
2023-02-18T00:43:54.031Z,89.03
2023-02-18T00:46:21.935Z,89.03
2023-02-18T00:48:50.803Z,88.87
2023-02-18T00:51:18.653Z,89.41
2023-02-18T00:53:46.479Z,89.36
2023-02-18T00:56:14.281Z,89.25
2023-02-18T00:58:43.783Z,89.33
2023-02-18T01:01:12.570Z,89.47
2023-02-18T01:03:42.284Z,89.24
2023-02-18T01:06:11.233Z,89.12
2023-02-18T01:08:40.046Z,89.00
2023-02-18T01:11:09.204Z,89.24
2023-02-18T01:13:37.849Z,89.23
2023-02-18T01:16:07.709Z,89.45
2023-02-18T01:18:35.699Z,89.55
2023-02-18T01:21:05.162Z,89.30
2023-02-18T01:23:32.950Z,89.55
2023-02-18T01:26:00.683Z,89.63
2023-02-18T01:28:28.465Z,89.72
2023-02-18T01:30:56.347Z,89.55
2023-02-18T01:33:25.823Z,89.73
2023-02-18T01:35:54.024Z,89.80
2023-02-18T01:38:21.774Z,89.89
2023-02-18T01:40:52.121Z,89.91
2023-02-18T01:43:21.216Z,90.02
2023-02-18T01:46:03.638Z,90.37
2023-02-18T01:48:39.477Z,90.49
2023-02-18T01:51:12.784Z,90.26
2023-02-18T01:53:47.443Z,90.68
2023-02-18T01:56:22.921Z,90.53
2023-02-18T01:58:52.299Z,90.87
2023-02-18T02:01:20.165Z,90.73
2023-02-18T02:03:49.373Z,90.90
2023-02-18T02:06:19.422Z,91.16
2023-02-18T02:08:50.314Z,90.79
2023-02-18T02:11:30.198Z,91.10
2023-02-18T02:14:12.261Z,90.95
2023-02-18T02:16:46.034Z,90.68
2023-02-18T02:19:57.698Z,90.92
2023-02-18T02:23:04.112Z,90.89
2023-02-18T02:26:02.204Z,91.04
2023-02-18T02:28:59.540Z,91.37
2023-02-18T02:31:54.783Z,91.06
2023-02-18T02:34:40.356Z,91.56
2023-02-18T02:37:16.122Z,91.48
2023-02-18T02:39:55.305Z,92.08
2023-02-18T02:42:31.788Z,92.41
2023-02-18T02:45:08.628Z,92.56
2023-02-18T02:47:42.312Z,92.81
2023-02-18T02:50:17.549Z,93.26
2023-02-18T02:52:49.039Z,93.57
2023-02-18T02:55:17.101Z,93.83
2023-02-18T02:57:50.952Z,93.45
2023-02-18T03:00:22.628Z,93.74
2023-02-18T03:03:07.675Z,94.34
2023-02-18T03:05:51.772Z,94.13
2023-02-18T03:08:34.085Z,94.48
2023-02-18T03:11:06.399Z,94.53
2023-02-18T03:13:46.400Z,94.72
2023-02-18T03:16:24.074Z,94.77
2023-02-18T03:18:58.556Z,94.79
2023-02-18T03:21:30.762Z,94.98
2023-02-18T03:24:03.216Z,95.28
2023-02-18T03:26:31.510Z,94.97
2023-02-18T03:29:03.860Z,94.96
2023-02-18T03:31:35.502Z,95.33
2023-02-18T03:34:07.959Z,95.28
2023-02-18T03:36:37.736Z,95.03
2023-02-18T03:39:08.990Z,95.59
2023-02-18T03:41:37.259Z,95.41
2023-02-18T03:44:06.495Z,95.47
2023-02-18T03:46:36.276Z,95.85
2023-02-18T03:49:04.984Z,95.59
2023-02-18T03:51:32.823Z,95.84
2023-02-18T03:54:02.068Z,96.05
2023-02-18T03:56:29.813Z,95.98
2023-02-18T03:58:57.582Z,95.86
2023-02-18T04:01:25.410Z,95.54
2023-02-18T04:03:55.194Z,95.86
2023-02-18T04:06:23.477Z,95.58
2023-02-18T04:08:51.621Z,95.40
2023-02-18T04:11:21.031Z,95.71
2023-02-18T04:13:48.800Z,95.41
2023-02-18T04:16:16.539Z,95.38
2023-02-18T04:18:44.296Z,95.14
2023-02-18T04:21:12.137Z,94.95
2023-02-18T04:23:39.941Z,95.11
2023-02-18T04:26:07.978Z,94.92
2023-02-18T04:28:37.300Z,95.05
2023-02-18T04:31:05.374Z,95.15
2023-02-18T04:33:33.150Z,95.14
2023-02-18T04:36:00.949Z,95.43
2023-02-18T04:38:28.640Z,96.14
2023-02-18T04:40:56.385Z,96.51
2023-02-18T04:43:24.078Z,96.47
2023-02-18T04:45:53.217Z,96.55
2023-02-18T04:48:20.995Z,96.65
2023-02-18T04:50:49.257Z,97.26
2023-02-18T04:53:16.955Z,97.53
2023-02-18T04:55:44.835Z,96.99
2023-02-18T04:58:12.628Z,97.35
2023-02-18T05:00:40.386Z,97.42
2023-02-18T05:03:09.455Z,97.39
2023-02-18T05:05:37.485Z,97.74
2023-02-18T05:08:06.616Z,97.97
2023-02-18T05:10:34.350Z,97.99
2023-02-18T05:13:02.216Z,97.97
2023-02-18T05:15:29.999Z,97.91
2023-02-18T05:17:57.694Z,98.02
2023-02-18T05:20:26.796Z,97.85
2023-02-18T05:22:54.576Z,98.18
2023-02-18T05:25:22.526Z,98.26
2023-02-18T05:27:50.362Z,98.39
2023-02-18T05:30:18.310Z,98.09
2023-02-18T05:32:46.966Z,98.21
2023-02-18T05:35:14.742Z,97.72
2023-02-18T05:37:43.831Z,98.11
2023-02-18T05:40:13.510Z,97.72
2023-02-18T05:42:41.254Z,98.08
2023-02-18T05:45:10.015Z,97.57
2023-02-18T05:47:37.824Z,97.89
2023-02-18T05:50:07.208Z,97.46
2023-02-18T05:52:34.956Z,97.47
2023-02-18T05:55:04.801Z,97.70
2023-02-18T05:57:32.587Z,97.54
2023-02-18T06:00:00.514Z,97.18
2023-02-18T06:02:28.332Z,97.43
2023-02-18T06:04:56.152Z,97.35
2023-02-18T06:07:24.043Z,97.71
2023-02-18T06:09:51.770Z,97.58
2023-02-18T06:12:21.010Z,97.37
2023-02-18T06:14:48.945Z,97.86
2023-02-18T06:17:18.708Z,98.04
2023-02-18T06:19:46.628Z,97.49
2023-02-18T06:22:14.337Z,97.83
2023-02-18T06:24:42.386Z,97.30
2023-02-18T06:27:10.177Z,97.40
2023-02-18T06:29:39.307Z,97.58
2023-02-18T06:32:07.245Z,97.50
2023-02-18T06:34:35.028Z,97.94
2023-02-18T06:37:02.823Z,98.10
2023-02-18T06:39:30.552Z,98.31
2023-02-18T06:41:58.410Z,98.28
2023-02-18T06:44:26.215Z,98.15
2023-02-18T06:46:55.352Z,98.06
2023-02-18T06:49:23.089Z,98.61
2023-02-18T06:51:50.775Z,98.90
2023-02-18T06:54:18.521Z,98.90
2023-02-18T06:56:46.243Z,98.99
2023-02-18T06:59:13.925Z,98.89
2023-02-18T07:01:41.634Z,98.91
2023-02-18T07:04:10.754Z,98.95
2023-02-18T07:06:38.456Z,99.20
2023-02-18T07:09:07.861Z,99.11
2023-02-18T07:11:35.652Z,99.34
2023-02-18T07:14:03.386Z,99.62
2023-02-18T07:16:31.162Z,98.95
2023-02-18T07:18:58.906Z,99.28
2023-02-18T07:21:28.074Z,98.97
2023-02-18T07:23:55.817Z,98.94
2023-02-18T07:26:23.584Z,98.82
2023-02-18T07:28:51.406Z,99.01
2023-02-18T07:31:19.323Z,99.26
2023-02-18T07:33:47.203Z,99.31
2023-02-18T07:36:15.103Z,99.71
2023-02-18T07:38:44.245Z,99.08
2023-02-18T07:41:19.216Z,98.98
2023-02-18T07:43:47.067Z,98.71
2023-02-18T07:46:14.950Z,97.95
2023-02-18T07:48:42.837Z,98.09
2023-02-18T07:51:12.515Z,97.63
2023-02-18T07:53:41.036Z,97.11
2023-02-18T07:56:10.866Z,96.56
2023-02-18T07:58:40.332Z,96.00
2023-02-18T08:01:08.977Z,95.29
2023-02-18T08:03:37.378Z,94.94
2023-02-18T08:06:07.346Z,94.46
2023-02-18T08:08:37.195Z,94.01
2023-02-18T08:11:18.944Z,93.96
2023-02-18T08:13:49.473Z,94.07
2023-02-18T08:16:18.363Z,94.49
2023-02-18T08:18:47.873Z,94.84
2023-02-18T08:21:15.841Z,94.31
2023-02-18T08:23:43.906Z,93.88
2023-02-18T08:26:12.317Z,93.95
2023-02-18T08:28:40.376Z,92.76
2023-02-18T08:31:19.624Z,92.79
2023-02-18T08:33:47.615Z,92.79
2023-02-18T08:36:15.997Z,92.04
2023-02-18T08:38:43.743Z,92.22
2023-02-18T08:41:11.827Z,91.51
2023-02-18T08:43:39.609Z,91.60
2023-02-18T08:46:09.069Z,91.93
2023-02-18T08:48:44.228Z,91.76
2023-02-18T08:51:14.126Z,91.92
2023-02-18T08:53:42.110Z,92.12
2023-02-18T08:56:10.797Z,91.72
2023-02-18T08:58:38.959Z,91.62
2023-02-18T09:01:10.904Z,91.04
2023-02-18T09:03:38.961Z,90.43
2023-02-18T09:06:07.354Z,90.43
2023-02-18T09:08:35.157Z,90.34
2023-02-18T09:11:05.527Z,90.17
2023-02-18T09:13:34.464Z,89.68
2023-02-18T09:16:04.370Z,89.28
2023-02-18T09:18:35.448Z,89.44
2023-02-18T09:21:04.620Z,89.17
2023-02-18T09:23:33.742Z,88.19
2023-02-18T09:26:02.078Z,88.69
2023-02-18T09:28:29.908Z,88.30
2023-02-18T09:30:57.751Z,88.01
2023-02-18T09:33:25.630Z,87.46
2023-02-18T09:35:55.230Z,87.04
2023-02-18T09:38:23.011Z,87.42
2023-02-18T09:40:54.930Z,87.25
2023-02-18T09:43:30.243Z,86.84
2023-02-18T09:46:00.590Z,86.38
2023-02-18T09:48:32.404Z,86.26
2023-02-18T09:51:01.791Z,85.95
2023-02-18T09:53:29.689Z,85.20
2023-02-18T09:55:59.027Z,85.24
2023-02-18T09:58:34.727Z,85.09
2023-02-18T10:01:12.005Z,85.49
2023-02-18T10:03:40.613Z,84.83
2023-02-18T10:06:17.093Z,85.50
2023-02-18T10:08:47.332Z,86.08
2023-02-18T10:11:17.660Z,86.80
2023-02-18T10:13:46.342Z,86.25
2023-02-18T10:16:18.905Z,86.72
2023-02-18T10:18:49.865Z,86.76
2023-02-18T10:21:23.158Z,86.66
2023-02-18T10:24:00.873Z,86.67
2023-02-18T10:26:30.861Z,87.09
2023-02-18T10:29:08.586Z,87.63
2023-02-18T10:31:40.552Z,88.35
2023-02-18T10:34:19.252Z,88.50
2023-02-18T10:36:52.816Z,89.01
2023-02-18T10:39:35.356Z,88.97
2023-02-18T10:42:15.940Z,89.27
2023-02-18T10:44:57.589Z,90.29
2023-02-18T10:47:38.477Z,89.86
2023-02-18T10:50:11.757Z,90.90
2023-02-18T10:52:44.325Z,91.00
2023-02-18T10:55:15.771Z,91.17
2023-02-18T10:57:51.901Z,91.45
2023-02-18T11:00:23.892Z,91.24
2023-02-18T11:03:06.970Z,91.21
2023-02-18T11:05:37.513Z,90.80
2023-02-18T11:08:09.971Z,91.27
2023-02-18T11:10:40.722Z,91.26
2023-02-18T11:13:11.040Z,91.24
2023-02-18T11:15:39.084Z,92.03
2023-02-18T11:18:29.694Z,92.04
2023-02-18T11:21:00.604Z,92.01
2023-02-18T11:23:29.934Z,92.95
2023-02-18T11:26:02.334Z,92.82
2023-02-18T11:28:47.654Z,92.89
2023-02-18T11:31:23.748Z,92.90
2023-02-18T11:33:55.100Z,93.10
2023-02-18T11:36:25.676Z,93.19
2023-02-18T11:38:57.855Z,93.08
2023-02-18T11:41:34.212Z,93.54
2023-02-18T11:44:03.463Z,93.87
2023-02-18T11:46:31.621Z,94.05
2023-02-18T11:49:13.036Z,93.89
2023-02-18T11:51:41.584Z,94.38
2023-02-18T11:54:24.897Z,94.75
2023-02-18T11:56:57.568Z,94.98
2023-02-18T11:59:26.121Z,94.69
2023-02-18T12:01:58.493Z,94.86
2023-02-18T12:04:31.602Z,94.99
2023-02-18T12:07:13.726Z,94.95
2023-02-18T12:09:47.465Z,94.96
2023-02-18T12:12:19.255Z,95.12
2023-02-18T12:14:47.088Z,94.98
2023-02-18T12:17:41.952Z,94.82
2023-02-18T12:20:39.806Z,94.86
2023-02-18T12:23:17.438Z,95.14
2023-02-18T12:25:57.542Z,95.50
2023-02-18T12:28:36.695Z,95.59
2023-02-18T12:31:36.382Z,96.12
2023-02-18T12:34:20.386Z,95.94
2023-02-18T12:36:59.569Z,95.85
2023-02-18T12:39:42.525Z,96.13
2023-02-18T12:42:37.445Z,95.64
2023-02-18T12:45:22.716Z,95.80
2023-02-18T12:48:12.474Z,95.58
2023-02-18T12:51:06.445Z,95.85
2023-02-18T12:53:50.176Z,95.14
2023-02-18T12:56:42.100Z,95.12
2023-02-18T12:59:23.414Z,96.02
2023-02-18T13:01:59.287Z,96.01
2023-02-18T13:04:38.891Z,96.35
2023-02-18T13:07:32.157Z,96.25
2023-02-18T13:10:38.045Z,96.41
2023-02-18T13:13:11.851Z,96.21
2023-02-18T13:15:45.170Z,95.94
2023-02-18T13:18:18.165Z,95.86
2023-02-18T13:20:50.496Z,96.17
2023-02-18T13:23:20.868Z,96.23
2023-02-18T13:25:53.625Z,96.44
2023-02-18T13:28:27.518Z,96.72
2023-02-18T13:31:07.898Z,96.56
2023-02-18T13:33:43.998Z,96.58
2023-02-18T13:36:21.202Z,96.37
2023-02-18T13:38:56.273Z,96.29
2023-02-18T13:41:26.554Z,95.91
2023-02-18T13:43:54.757Z,95.93
2023-02-18T13:46:24.773Z,95.63
2023-02-18T13:48:54.873Z,95.47
2023-02-18T13:51:31.688Z,95.53
2023-02-18T13:54:05.272Z,95.68
2023-02-18T13:56:36.251Z,95.75
2023-02-18T13:59:11.170Z,96.07
2023-02-18T14:01:43.624Z,96.21
2023-02-18T14:04:29.821Z,96.05
2023-02-18T14:07:26.317Z,96.19
2023-02-18T14:09:55.761Z,96.11
2023-02-18T14:12:39.167Z,95.62
2023-02-18T14:15:44.206Z,95.94
2023-02-18T14:18:25.946Z,96.16
2023-02-18T14:21:04.567Z,95.60
2023-02-18T14:23:42.185Z,95.40
2023-02-18T14:26:19.214Z,95.52
2023-02-18T14:28:54.613Z,95.91
2023-02-18T14:31:38.409Z,96.07
2023-02-18T14:34:39.237Z,95.79
2023-02-18T14:37:29.660Z,96.29
2023-02-18T14:40:07.521Z,96.51
2023-02-18T14:42:44.889Z,96.22
2023-02-18T14:45:26.498Z,96.15
2023-02-18T14:48:18.046Z,96.47
2023-02-18T14:50:51.221Z,96.22
2023-02-18T14:53:21.191Z,96.29
2023-02-18T14:55:52.023Z,95.97
2023-02-18T14:58:29.159Z,95.69
2023-02-18T15:00:57.229Z,95.90
2023-02-18T15:03:28.370Z,96.03
2023-02-18T15:05:57.502Z,95.91
2023-02-18T15:08:27.152Z,95.92
2023-02-18T15:10:59.864Z,95.81
2023-02-18T15:13:30.403Z,96.54
2023-02-18T15:16:01.603Z,96.41
2023-02-18T15:18:37.643Z,96.39
2023-02-18T15:21:22.190Z,96.90
2023-02-18T15:23:50.552Z,96.53
2023-02-18T15:26:18.940Z,96.58
2023-02-18T15:28:55.795Z,96.36
2023-02-18T15:31:27.320Z,96.46
2023-02-18T15:33:55.117Z,96.06
2023-02-18T15:36:27.608Z,96.17
2023-02-18T15:38:56.170Z,95.86
2023-02-18T15:41:24.256Z,95.91
2023-02-18T15:43:57.095Z,95.98
2023-02-18T15:46:28.789Z,95.44
2023-02-18T15:48:58.958Z,95.71
2023-02-18T15:51:31.484Z,95.74
2023-02-18T15:54:00.657Z,95.63
2023-02-18T15:56:32.537Z,95.77
2023-02-18T15:59:20.232Z,95.46
2023-02-18T16:01:51.129Z,95.46
2023-02-18T16:04:19.708Z,95.07
2023-02-18T16:06:52.018Z,94.87
2023-02-18T16:09:24.524Z,95.12
2023-02-18T16:11:53.133Z,95.12
2023-02-18T16:14:32.620Z,94.73
2023-02-18T16:17:10.369Z,94.76
2023-02-18T16:20:04.004Z,94.27
2023-02-18T16:22:44.017Z,94.69
2023-02-18T16:25:18.293Z,94.18
2023-02-18T16:27:52.458Z,94.08
2023-02-18T16:30:22.685Z,94.18
2023-02-18T16:32:50.544Z,94.11
2023-02-18T16:35:18.754Z,94.35
2023-02-18T16:37:50.136Z,93.61
2023-02-18T16:40:25.722Z,93.65
2023-02-18T16:42:54.538Z,93.69
2023-02-18T16:45:25.213Z,93.86
2023-02-18T16:47:52.999Z,93.99
2023-02-18T16:50:22.949Z,93.92
2023-02-18T16:52:53.966Z,93.91
2023-02-18T16:55:23.301Z,94.09
2023-02-18T16:57:51.174Z,94.20
2023-02-18T17:00:20.067Z,94.04
2023-02-18T17:02:51.076Z,94.20
2023-02-18T17:05:27.548Z,93.87
2023-02-18T17:07:58.692Z,94.00
2023-02-18T17:10:26.407Z,94.33
2023-02-18T17:12:54.063Z,94.26
2023-02-18T17:15:33.088Z,94.04
2023-02-18T17:18:01.751Z,94.30
2023-02-18T17:20:32.056Z,94.20
2023-02-18T17:23:01.204Z,94.42
2023-02-18T17:25:33.260Z,94.50
2023-02-18T17:28:02.934Z,94.42
2023-02-18T17:30:31.914Z,94.67
2023-02-18T17:33:03.074Z,94.84
2023-02-18T17:35:31.481Z,94.90
2023-02-18T17:37:59.237Z,94.92
2023-02-18T17:40:29.598Z,94.97
2023-02-18T17:42:57.678Z,95.52
2023-02-18T17:45:29.870Z,95.75
2023-02-18T17:47:57.974Z,96.21
2023-02-18T17:50:26.375Z,96.32
2023-02-18T17:52:54.052Z,96.48
2023-02-18T17:55:24.088Z,96.32
2023-02-18T17:57:54.069Z,95.94
2023-02-18T18:00:24.003Z,96.27
2023-02-18T18:02:51.971Z,96.34
2023-02-18T18:05:23.079Z,96.58
2023-02-18T18:07:51.769Z,96.53
2023-02-18T18:10:21.947Z,96.74
2023-02-18T18:12:50.759Z,96.33
2023-02-18T18:15:27.973Z,96.52
2023-02-18T18:17:56.987Z,96.45
2023-02-18T18:20:25.388Z,96.59
2023-02-18T18:22:55.234Z,96.87
2023-02-18T18:25:26.572Z,96.65
2023-02-18T18:27:54.496Z,96.59
2023-02-18T18:30:25.887Z,96.96
2023-02-18T18:32:53.779Z,97.00
2023-02-18T18:35:24.459Z,97.28
2023-02-18T18:37:52.859Z,96.84
2023-02-18T18:40:22.642Z,96.70
2023-02-18T18:42:50.838Z,96.63
2023-02-18T18:45:22.262Z,97.00
2023-02-18T18:47:55.203Z,96.85
2023-02-18T18:50:24.182Z,96.72
2023-02-18T18:52:53.572Z,96.69
2023-02-18T18:55:25.001Z,96.67
2023-02-18T18:57:53.214Z,96.51
2023-02-18T19:00:23.295Z,97.01
2023-02-18T19:02:52.498Z,96.76
2023-02-18T19:05:23.756Z,97.15
2023-02-18T19:07:51.664Z,97.73
2023-02-18T19:10:20.766Z,98.09
2023-02-18T19:12:49.870Z,98.23
2023-02-18T19:15:20.159Z,98.18
2023-02-18T19:17:54.725Z,98.09
2023-02-18T19:20:28.277Z,98.34
2023-02-18T19:22:58.290Z,98.41
2023-02-18T19:25:26.935Z,98.37
2023-02-18T19:27:54.914Z,98.24
2023-02-18T19:30:24.692Z,97.77
2023-02-18T19:32:56.810Z,97.74
2023-02-18T19:35:25.946Z,97.63
2023-02-18T19:37:54.198Z,97.37
2023-02-18T19:40:24.172Z,97.42
2023-02-18T19:42:52.592Z,96.91
2023-02-18T19:45:20.770Z,97.09
2023-02-18T19:47:53.344Z,97.17
2023-02-18T19:50:22.595Z,96.79
2023-02-18T19:52:53.119Z,97.18
2023-02-18T19:55:21.697Z,96.96
2023-02-18T19:57:49.500Z,96.74
2023-02-18T20:00:19.124Z,96.99
2023-02-18T20:02:47.848Z,96.72
2023-02-18T20:05:16.160Z,96.97
2023-02-18T20:07:46.912Z,96.78
2023-02-18T20:10:16.775Z,96.56
2023-02-18T20:12:45.075Z,96.50
2023-02-18T20:15:12.964Z,96.27
2023-02-18T20:17:44.978Z,96.16
2023-02-18T20:20:12.832Z,96.21
2023-02-18T20:22:40.704Z,96.30
2023-02-18T20:25:10.337Z,95.75
2023-02-18T20:27:45.152Z,95.58
2023-02-18T20:30:19.030Z,95.95
2023-02-18T20:32:46.893Z,95.39
2023-02-18T20:35:14.714Z,95.58
2023-02-18T20:37:42.485Z,95.61
2023-02-18T20:40:12.097Z,95.52
2023-02-18T20:42:41.909Z,95.65
2023-02-18T20:45:10.680Z,95.14
2023-02-18T20:47:38.411Z,95.11
2023-02-18T20:50:06.624Z,95.13
2023-02-18T20:52:36.532Z,95.22
2023-02-18T20:55:04.398Z,95.32
2023-02-18T20:57:33.610Z,95.70
2023-02-18T21:00:05.987Z,95.33
2023-02-18T21:02:33.880Z,96.05
2023-02-18T21:05:01.660Z,96.47
2023-02-18T21:07:29.463Z,96.29
2023-02-18T21:09:57.233Z,95.99
2023-02-18T21:12:25.119Z,96.09
2023-02-18T21:14:54.338Z,96.01
2023-02-18T21:17:22.936Z,96.16
2023-02-18T21:19:50.709Z,96.44
2023-02-18T21:22:18.422Z,96.25
2023-02-18T21:24:46.333Z,96.15
2023-02-18T21:27:14.144Z,96.51
2023-02-18T21:29:41.986Z,96.42
2023-02-18T21:32:11.176Z,96.89
2023-02-18T21:34:39.013Z,96.82
2023-02-18T21:37:06.693Z,96.68
2023-02-18T21:39:34.468Z,96.87
2023-02-18T21:42:04.254Z,96.85
2023-02-18T21:44:41.698Z,97.02
2023-02-18T21:47:12.334Z,96.91
2023-02-18T21:49:40.104Z,96.84
2023-02-18T21:52:09.468Z,96.83
2023-02-18T21:54:40.245Z,97.01
2023-02-18T21:57:10.824Z,96.82
2023-02-18T21:59:38.856Z,96.93
2023-02-18T22:02:09.978Z,97.41
2023-02-18T22:04:39.189Z,97.29
2023-02-18T22:07:06.917Z,97.42
2023-02-18T22:09:34.783Z,97.43
2023-02-18T22:12:02.610Z,97.13
2023-02-18T22:14:30.673Z,97.39
2023-02-18T22:16:58.600Z,97.29
2023-02-18T22:19:26.738Z,97.11
2023-02-18T22:21:56.217Z,97.04
2023-02-18T22:24:23.939Z,96.95
2023-02-18T22:26:51.852Z,97.02
2023-02-18T22:29:21.502Z,96.95
2023-02-18T22:31:50.155Z,96.96
2023-02-18T22:34:18.102Z,96.89
2023-02-18T22:36:46.081Z,96.96
2023-02-18T22:39:16.292Z,96.89
2023-02-18T22:41:44.145Z,97.27
2023-02-18T22:44:13.855Z,96.86
2023-02-18T22:46:41.748Z,97.14
2023-02-18T22:49:09.627Z,96.53
2023-02-18T22:51:39.877Z,96.69
2023-02-18T22:54:11.009Z,96.90
2023-02-18T22:56:40.575Z,96.56
2023-02-18T22:59:08.296Z,97.15
2023-02-18T23:01:38.187Z,96.91
2023-02-18T23:04:08.821Z,97.36
2023-02-18T23:06:37.627Z,97.74
2023-02-18T23:09:06.494Z,97.63
2023-02-18T23:11:34.649Z,97.76
2023-02-18T23:14:18.937Z,97.38
2023-02-18T23:17:04.524Z,97.48
2023-02-18T23:19:33.453Z,98.06
2023-02-18T23:22:01.135Z,97.43
2023-02-18T23:24:29.017Z,97.89
2023-02-18T23:26:56.765Z,97.92
2023-02-18T23:29:25.848Z,97.67
2023-02-18T23:31:53.689Z,97.18
2023-02-18T23:34:21.457Z,97.15
2023-02-18T23:36:49.233Z,97.01
2023-02-18T23:39:18.903Z,97.28
2023-02-18T23:41:48.117Z,96.59
2023-02-18T23:44:17.359Z,96.21
2023-02-18T23:46:46.609Z,96.71
2023-02-18T23:49:15.963Z,96.11
2023-02-18T23:51:44.192Z,96.52
2023-02-18T23:54:13.913Z,96.59
2023-02-18T23:56:41.768Z,96.88
2023-02-18T23:59:12.200Z,96.29
